createdAt,value
2023-05-14T00:01:02.175Z,13.80
2023-05-14T00:03:30.331Z,13.60
2023-05-14T00:05:58.457Z,13.60
2023-05-14T00:08:27.822Z,13.60
2023-05-14T00:10:55.799Z,13.60
2023-05-14T00:13:24.153Z,13.60
2023-05-14T00:15:52.189Z,13.50
2023-05-14T00:18:20.203Z,13.50
2023-05-14T00:20:48.127Z,13.50
2023-05-14T00:23:16.064Z,13.50
2023-05-14T00:25:45.447Z,13.40
2023-05-14T00:28:13.416Z,13.40
2023-05-14T00:30:41.350Z,13.40
2023-05-14T00:33:09.378Z,13.30
2023-05-14T00:35:38.432Z,13.40
2023-05-14T00:38:06.477Z,13.30
2023-05-14T00:40:34.473Z,13.30
2023-05-14T00:43:04.812Z,13.40
2023-05-14T00:45:32.702Z,13.30
2023-05-14T00:48:00.773Z,13.30
2023-05-14T00:50:28.884Z,13.40
2023-05-14T00:52:56.849Z,13.40
2023-05-14T00:55:24.939Z,13.50
2023-05-14T00:57:55.718Z,13.50
2023-05-14T01:00:25.344Z,13.50
2023-05-14T01:02:53.567Z,13.40
2023-05-14T01:05:22.333Z,13.40
2023-05-14T01:07:59.070Z,13.30
2023-05-14T01:10:33.938Z,13.30
2023-05-14T01:13:11.848Z,13.30
2023-05-14T01:15:42.942Z,13.30
2023-05-14T01:18:12.187Z,13.20
2023-05-14T01:20:40.164Z,13.10
2023-05-14T01:23:09.481Z,13.10
2023-05-14T01:25:38.127Z,13.10
2023-05-14T01:28:14.063Z,13.10
2023-05-14T01:30:47.073Z,13.10
2023-05-14T01:33:18.167Z,13.10
2023-05-14T01:35:46.981Z,13.10
2023-05-14T01:38:20.020Z,13.00
2023-05-14T01:40:48.856Z,12.90
2023-05-14T01:43:17.901Z,12.90
2023-05-14T01:45:46.064Z,12.90
2023-05-14T01:48:14.148Z,12.80
2023-05-14T01:50:42.127Z,12.80
2023-05-14T01:53:10.048Z,12.80
2023-05-14T01:55:39.395Z,12.70
2023-05-14T01:58:07.401Z,12.70
2023-05-14T02:00:35.338Z,12.70
2023-05-14T02:03:03.312Z,12.60
2023-05-14T02:05:31.395Z,12.60
2023-05-14T02:07:59.270Z,12.60
2023-05-14T02:10:27.236Z,12.60
2023-05-14T02:12:57.214Z,12.60
2023-05-14T02:15:25.095Z,12.60
2023-05-14T02:17:53.133Z,12.50
2023-05-14T02:20:21.335Z,12.50
2023-05-14T02:22:49.395Z,12.50
2023-05-14T02:25:17.513Z,12.50
2023-05-14T02:27:45.650Z,12.40
2023-05-14T02:30:15.429Z,12.40
2023-05-14T02:32:43.456Z,12.40
2023-05-14T02:35:11.481Z,12.30
2023-05-14T02:37:39.468Z,12.30
2023-05-14T02:40:08.607Z,12.30
2023-05-14T02:42:36.610Z,12.30
2023-05-14T02:45:04.855Z,12.30
2023-05-14T02:47:36.844Z,12.30
2023-05-14T02:50:06.863Z,12.30
2023-05-14T02:52:34.852Z,12.30
2023-05-14T02:55:02.977Z,12.30
2023-05-14T02:57:30.996Z,12.20
2023-05-14T02:59:59.057Z,12.10
2023-05-14T03:02:27.476Z,12.10
2023-05-14T03:04:57.101Z,12.10
2023-05-14T03:07:25.176Z,12.10
2023-05-14T03:09:53.148Z,12.00
2023-05-14T03:12:21.268Z,12.10
2023-05-14T03:14:49.410Z,12.00
2023-05-14T03:17:17.415Z,12.00
2023-05-14T03:19:45.378Z,11.90
2023-05-14T03:22:14.662Z,11.80
2023-05-14T03:24:43.223Z,11.80
2023-05-14T03:27:11.162Z,11.80
2023-05-14T03:29:39.101Z,11.70
2023-05-14T03:32:08.091Z,11.70
2023-05-14T03:34:36.793Z,11.60
2023-05-14T03:37:05.072Z,11.60
2023-05-14T03:39:34.483Z,11.70
2023-05-14T03:42:02.489Z,11.60
2023-05-14T03:44:30.478Z,11.60
2023-05-14T03:46:58.573Z,11.50
2023-05-14T03:49:26.624Z,11.50
2023-05-14T03:51:54.607Z,11.50
2023-05-14T03:54:22.588Z,11.50
2023-05-14T03:56:51.884Z,11.40
2023-05-14T03:59:19.834Z,11.50
2023-05-14T04:01:47.883Z,11.50
2023-05-14T04:04:16.097Z,11.50
2023-05-14T04:06:44.021Z,11.50
2023-05-14T04:09:11.996Z,11.60
2023-05-14T04:11:39.977Z,11.60
2023-05-14T04:14:09.369Z,11.50
2023-05-14T04:16:37.407Z,11.60
2023-05-14T04:19:06.091Z,11.60
2023-05-14T04:21:34.261Z,11.60
2023-05-14T04:24:02.425Z,11.60
2023-05-14T04:26:30.349Z,11.70
2023-05-14T04:28:58.316Z,11.60
2023-05-14T04:31:27.676Z,11.60
2023-05-14T04:33:55.656Z,11.50
2023-05-14T04:36:23.572Z,11.50
2023-05-14T04:38:51.772Z,11.60
2023-05-14T04:41:19.701Z,11.50
2023-05-14T04:43:50.775Z,11.60
2023-05-14T04:46:19.319Z,11.60
2023-05-14T04:48:48.676Z,11.60
2023-05-14T04:51:16.625Z,11.80
2023-05-14T04:53:44.525Z,11.80
2023-05-14T04:56:12.556Z,11.80
2023-05-14T04:58:40.524Z,11.90
2023-05-14T05:01:09.232Z,11.90
2023-05-14T05:03:37.268Z,12.00
2023-05-14T05:06:07.026Z,12.00
2023-05-14T05:08:35.065Z,12.00
2023-05-14T05:11:03.154Z,12.10
2023-05-14T05:13:32.207Z,12.10
2023-05-14T05:16:00.271Z,12.10
2023-05-14T05:18:28.313Z,12.20
2023-05-14T05:20:56.440Z,12.10
2023-05-14T05:23:25.802Z,12.20
2023-05-14T05:25:53.758Z,12.30
2023-05-14T05:28:21.995Z,12.30
2023-05-14T05:30:50.153Z,12.40
2023-05-14T05:33:18.323Z,12.40
2023-05-14T05:35:46.340Z,12.50
2023-05-14T05:38:15.568Z,12.60
2023-05-14T05:40:44.968Z,12.60
2023-05-14T05:43:13.937Z,12.70
2023-05-14T05:45:41.856Z,12.80
2023-05-14T05:48:09.902Z,12.90
2023-05-14T05:50:37.909Z,13.00
2023-05-14T05:53:05.931Z,13.10
2023-05-14T05:55:34.047Z,13.20
2023-05-14T05:58:04.106Z,13.30
2023-05-14T06:00:32.392Z,13.30
2023-05-14T06:03:00.661Z,13.50
2023-05-14T06:05:28.805Z,13.50
2023-05-14T06:07:57.457Z,13.50
2023-05-14T06:10:25.920Z,14.00
2023-05-14T06:12:54.086Z,13.80
2023-05-14T06:15:24.206Z,14.00
2023-05-14T06:17:52.208Z,14.20
2023-05-14T06:20:20.531Z,13.90
2023-05-14T06:22:48.552Z,13.90
2023-05-14T06:25:16.596Z,14.10
2023-05-14T06:27:44.532Z,14.20
2023-05-14T06:30:13.566Z,14.50
2023-05-14T06:32:43.043Z,14.70
2023-05-14T06:35:11.544Z,14.70
2023-05-14T06:37:39.790Z,14.50
2023-05-14T06:40:08.916Z,14.50
2023-05-14T06:42:36.858Z,14.50
2023-05-14T06:45:05.601Z,15.00
2023-05-14T06:47:33.687Z,15.30
2023-05-14T06:50:03.308Z,15.70
2023-05-14T06:52:31.235Z,15.80
2023-05-14T06:54:59.229Z,15.40
2023-05-14T06:57:27.305Z,15.40
2023-05-14T06:59:55.499Z,15.60
2023-05-14T07:02:23.493Z,15.80
2023-05-14T07:04:51.565Z,16.00
2023-05-14T07:07:21.257Z,16.10
2023-05-14T07:09:49.359Z,15.70
2023-05-14T07:12:17.563Z,15.50
2023-05-14T07:14:46.649Z,15.40
2023-05-14T07:17:14.836Z,15.60
2023-05-14T07:19:42.952Z,16.10
2023-05-14T07:22:11.089Z,16.10
2023-05-14T07:24:40.576Z,16.20
2023-05-14T07:27:09.078Z,16.80
2023-05-14T07:29:37.233Z,17.20
2023-05-14T07:32:06.148Z,17.10
2023-05-14T07:34:34.724Z,17.50
2023-05-14T07:37:02.964Z,17.50
2023-05-14T07:39:31.286Z,17.30
2023-05-14T07:42:01.654Z,17.40
2023-05-14T07:44:29.809Z,17.50
2023-05-14T07:46:57.960Z,17.20
2023-05-14T07:49:26.154Z,17.60
2023-05-14T07:51:54.292Z,18.10
2023-05-14T07:54:23.454Z,18.10
2023-05-14T07:56:52.065Z,18.40
2023-05-14T07:59:21.636Z,18.20
2023-05-14T08:01:49.836Z,18.30
2023-05-14T08:04:18.120Z,18.50
2023-05-14T08:06:46.285Z,18.60
2023-05-14T08:09:14.540Z,18.80
2023-05-14T08:11:42.719Z,18.90
2023-05-14T08:14:10.777Z,19.30
2023-05-14T08:16:40.634Z,19.30
2023-05-14T08:19:08.921Z,19.40
2023-05-14T08:21:37.145Z,19.40
2023-05-14T08:24:05.733Z,19.40
2023-05-14T08:26:33.951Z,19.60
2023-05-14T08:29:01.989Z,19.40
2023-05-14T08:31:30.399Z,19.40
2023-05-14T08:33:59.871Z,19.50
2023-05-14T08:36:27.978Z,19.60
2023-05-14T08:38:56.028Z,19.80
2023-05-14T08:41:24.385Z,20.10
2023-05-14T08:44:08.652Z,20.10
2023-05-14T08:46:39.326Z,20.00
2023-05-14T08:49:23.730Z,19.90
2023-05-14T08:51:52.227Z,19.80
2023-05-14T08:54:25.303Z,20.10
2023-05-14T08:56:54.924Z,20.50
2023-05-14T08:59:23.538Z,20.60
2023-05-14T09:01:55.930Z,20.90
2023-05-14T09:04:26.640Z,20.80
2023-05-14T09:06:56.598Z,20.70
2023-05-14T09:09:25.234Z,21.10
2023-05-14T09:11:54.914Z,21.30
2023-05-14T09:14:24.645Z,21.50
2023-05-14T09:16:54.961Z,21.50
2023-05-14T09:19:25.912Z,21.50
2023-05-14T09:21:57.625Z,21.40
2023-05-14T09:24:29.642Z,21.30
2023-05-14T09:26:59.561Z,21.20
2023-05-14T09:29:28.639Z,21.50
2023-05-14T09:31:58.620Z,21.60
2023-05-14T09:34:29.850Z,21.80
2023-05-14T09:36:58.739Z,22.00
2023-05-14T09:39:27.478Z,22.00
2023-05-14T09:41:56.253Z,21.90
2023-05-14T09:44:25.548Z,22.40
2023-05-14T09:46:54.673Z,22.70
2023-05-14T09:49:23.198Z,22.90
2023-05-14T09:51:55.006Z,22.80
2023-05-14T09:54:28.485Z,22.70
2023-05-14T09:56:56.563Z,23.10
2023-05-14T09:59:24.658Z,23.20
2023-05-14T10:01:54.263Z,23.30
2023-05-14T10:04:24.115Z,23.20
2023-05-14T10:06:54.345Z,23.40
2023-05-14T10:09:26.378Z,23.30
2023-05-14T10:11:58.064Z,23.50
2023-05-14T10:14:30.473Z,23.50
2023-05-14T10:17:02.439Z,23.70
2023-05-14T10:19:34.097Z,24.00
2023-05-14T10:22:15.437Z,23.70
2023-05-14T10:24:44.139Z,23.50
2023-05-14T10:27:12.642Z,23.70
2023-05-14T10:29:42.104Z,23.70
2023-05-14T10:32:13.097Z,23.80
2023-05-14T10:34:44.005Z,23.50
2023-05-14T10:37:16.220Z,23.70
2023-05-14T10:39:49.476Z,23.90
2023-05-14T10:42:20.195Z,24.10
2023-05-14T10:44:51.712Z,24.30
2023-05-14T10:47:20.116Z,24.20
2023-05-14T10:49:50.441Z,24.50
2023-05-14T10:52:20.693Z,24.80
2023-05-14T10:54:55.185Z,24.90
2023-05-14T10:57:26.104Z,25.10
2023-05-14T10:59:56.363Z,25.10
2023-05-14T11:02:26.930Z,25.00
2023-05-14T11:04:58.084Z,25.30
2023-05-14T11:07:30.081Z,25.00
2023-05-14T11:10:03.552Z,24.70
2023-05-14T11:12:32.116Z,25.40
2023-05-14T11:15:03.878Z,25.40
2023-05-14T11:17:33.193Z,25.40
2023-05-14T11:20:01.358Z,24.60
2023-05-14T11:22:32.334Z,24.80
2023-05-14T11:25:00.601Z,25.00
2023-05-14T11:27:29.033Z,25.80
2023-05-14T11:30:01.102Z,25.70
2023-05-14T11:32:29.422Z,24.80
2023-05-14T11:34:58.850Z,25.20
2023-05-14T11:37:26.958Z,25.60
2023-05-14T11:40:01.386Z,25.20
2023-05-14T11:42:29.674Z,25.00
2023-05-14T11:44:57.812Z,25.60
2023-05-14T11:47:26.124Z,25.30
2023-05-14T11:49:54.748Z,25.70
2023-05-14T11:52:22.838Z,25.90
2023-05-14T11:54:51.053Z,25.80
2023-05-14T11:57:22.098Z,25.80
2023-05-14T11:59:56.026Z,25.00
2023-05-14T12:02:24.721Z,25.10
2023-05-14T12:04:54.468Z,25.20
2023-05-14T12:07:22.863Z,24.90
2023-05-14T12:09:51.172Z,24.90
2023-05-14T12:12:22.367Z,25.40
2023-05-14T12:14:52.625Z,25.50
2023-05-14T12:17:23.199Z,25.60
2023-05-14T12:19:53.085Z,26.00
2023-05-14T12:22:24.114Z,26.00
2023-05-14T12:24:55.746Z,26.30
2023-05-14T12:27:26.351Z,26.30
2023-05-14T12:30:12.994Z,26.20
2023-05-14T12:32:48.960Z,26.60
2023-05-14T12:35:17.267Z,25.80
2023-05-14T12:37:48.731Z,25.70
2023-05-14T12:40:16.873Z,25.80
2023-05-14T12:42:46.341Z,25.50
2023-05-14T12:45:14.463Z,25.20
2023-05-14T12:47:42.636Z,25.40
2023-05-14T12:50:11.457Z,26.20
2023-05-14T12:52:40.091Z,26.50
2023-05-14T12:55:09.942Z,26.40
2023-05-14T12:57:39.106Z,26.60
2023-05-14T13:00:21.490Z,26.10
2023-05-14T13:02:49.646Z,26.40
2023-05-14T13:05:17.968Z,27.20
2023-05-14T13:07:46.030Z,27.00
2023-05-14T13:10:14.240Z,27.00
2023-05-14T13:12:42.315Z,26.90
2023-05-14T13:15:12.617Z,26.70
2023-05-14T13:17:41.381Z,26.60
2023-05-14T13:20:10.455Z,26.30
2023-05-14T13:22:38.570Z,26.00
2023-05-14T13:25:07.990Z,26.10
2023-05-14T13:27:36.926Z,26.20
2023-05-14T13:30:05.438Z,26.10
2023-05-14T13:32:36.021Z,26.60
2023-05-14T13:35:04.409Z,26.70
2023-05-14T13:37:32.478Z,26.50
2023-05-14T13:40:01.676Z,26.60
2023-05-14T13:42:29.729Z,26.40
2023-05-14T13:44:59.999Z,26.20
2023-05-14T13:47:28.341Z,25.70
2023-05-14T13:49:57.861Z,25.20
2023-05-14T13:52:26.438Z,24.70
2023-05-14T13:54:54.413Z,24.60
2023-05-14T13:57:23.004Z,24.30
2023-05-14T13:59:51.178Z,24.10
2023-05-14T14:02:19.369Z,24.10
2023-05-14T14:04:47.421Z,24.00
2023-05-14T14:07:17.158Z,24.00
2023-05-14T14:09:45.650Z,23.90
2023-05-14T14:12:13.876Z,23.70
2023-05-14T14:14:42.106Z,23.80
2023-05-14T14:17:10.030Z,24.00
2023-05-14T14:19:38.123Z,24.10
2023-05-14T14:22:06.681Z,24.40
2023-05-14T14:24:36.307Z,24.90
2023-05-14T14:27:04.667Z,24.80
2023-05-14T14:29:33.117Z,24.70
2023-05-14T14:32:01.507Z,24.60
2023-05-14T14:34:29.749Z,24.40
2023-05-14T14:36:58.028Z,24.50
2023-05-14T14:39:26.574Z,24.40
2023-05-14T14:41:56.380Z,24.40
2023-05-14T14:44:24.455Z,24.40
2023-05-14T14:46:52.726Z,24.40
2023-05-14T14:49:20.924Z,24.20
2023-05-14T14:51:49.165Z,24.10
2023-05-14T14:54:17.277Z,24.00
2023-05-14T14:56:45.973Z,23.90
2023-05-14T14:59:15.530Z,23.90
2023-05-14T15:01:43.897Z,23.90
2023-05-14T15:04:12.039Z,24.10
2023-05-14T15:06:40.093Z,23.90
2023-05-14T15:09:09.175Z,23.90
2023-05-14T15:11:37.686Z,24.10
2023-05-14T15:14:05.877Z,23.90
2023-05-14T15:16:35.463Z,23.60
2023-05-14T15:19:03.754Z,23.80
2023-05-14T15:21:32.045Z,23.80
2023-05-14T15:24:00.067Z,23.90
2023-05-14T15:26:28.138Z,23.90
2023-05-14T15:28:56.261Z,23.90
2023-05-14T15:31:24.635Z,23.70
2023-05-14T15:33:55.998Z,23.60
2023-05-14T15:36:24.162Z,23.60
2023-05-14T15:38:52.167Z,23.40
2023-05-14T15:41:21.202Z,23.50
2023-05-14T15:43:49.305Z,23.40
2023-05-14T15:46:17.395Z,23.00
2023-05-14T15:48:45.514Z,23.00
2023-05-14T15:51:15.252Z,23.00
2023-05-14T15:53:43.303Z,22.90
2023-05-14T15:56:11.537Z,22.90
2023-05-14T15:58:39.657Z,22.90
2023-05-14T16:01:07.743Z,22.70
2023-05-14T16:03:36.523Z,22.60
2023-05-14T16:06:04.716Z,22.40
2023-05-14T16:08:34.119Z,22.50
2023-05-14T16:11:02.347Z,22.30
2023-05-14T16:13:30.654Z,22.20
2023-05-14T16:15:59.526Z,22.10
2023-05-14T16:18:27.875Z,22.10
2023-05-14T16:20:56.009Z,22.20
2023-05-14T16:23:24.074Z,22.10
2023-05-14T16:25:53.488Z,22.20
2023-05-14T16:28:21.693Z,22.10
2023-05-14T16:30:49.843Z,22.20
2023-05-14T16:33:17.869Z,22.10
2023-05-14T16:35:46.455Z,22.20
2023-05-14T16:38:15.337Z,22.20
2023-05-14T16:40:43.509Z,22.10
2023-05-14T16:43:12.997Z,22.10
2023-05-14T16:45:41.122Z,22.00
2023-05-14T16:48:09.354Z,21.90
2023-05-14T16:50:37.584Z,21.90
2023-05-14T16:53:05.846Z,21.70
2023-05-14T16:55:34.042Z,21.60
2023-05-14T16:58:02.488Z,21.50
2023-05-14T17:00:32.198Z,21.60
2023-05-14T17:03:00.421Z,21.50
2023-05-14T17:05:28.568Z,21.50
2023-05-14T17:07:56.823Z,21.40
2023-05-14T17:10:26.244Z,21.30
2023-05-14T17:12:54.257Z,21.30
2023-05-14T17:15:22.434Z,21.20
2023-05-14T17:17:51.816Z,21.20
2023-05-14T17:20:19.976Z,21.20
2023-05-14T17:22:48.287Z,21.10
2023-05-14T17:25:16.835Z,21.10
2023-05-14T17:27:45.145Z,21.00
2023-05-14T17:30:14.043Z,21.00
2023-05-14T17:32:42.245Z,20.90
2023-05-14T17:35:14.420Z,20.80
2023-05-14T17:37:43.357Z,20.80
2023-05-14T17:40:15.272Z,20.70
2023-05-14T17:42:45.432Z,20.60
2023-05-14T17:45:14.687Z,20.60
2023-05-14T17:47:42.934Z,20.50
2023-05-14T17:50:12.635Z,20.50
2023-05-14T17:52:44.603Z,20.30
2023-05-14T17:55:18.213Z,20.20
2023-05-14T17:57:46.822Z,20.20
2023-05-14T18:00:16.045Z,20.10
2023-05-14T18:02:44.264Z,20.00
2023-05-14T18:05:13.833Z,19.90
2023-05-14T18:07:41.978Z,19.60
2023-05-14T18:10:10.445Z,19.50
2023-05-14T18:12:38.671Z,19.40
2023-05-14T18:15:07.871Z,19.30
2023-05-14T18:17:35.908Z,19.10
2023-05-14T18:20:04.869Z,19.10
2023-05-14T18:22:34.402Z,19.00
2023-05-14T18:25:02.702Z,18.90
2023-05-14T18:27:31.242Z,18.90
2023-05-14T18:29:59.556Z,18.80
2023-05-14T18:32:27.860Z,18.70
2023-05-14T18:34:56.079Z,18.60
2023-05-14T18:37:24.236Z,18.60
2023-05-14T18:39:53.961Z,18.40
2023-05-14T18:42:22.163Z,18.40
2023-05-14T18:44:50.332Z,18.40
2023-05-14T18:47:18.553Z,18.30
2023-05-14T18:49:47.239Z,18.10
2023-05-14T18:52:15.396Z,18.00
2023-05-14T18:54:43.514Z,18.00
2023-05-14T18:57:13.642Z,17.90
2023-05-14T18:59:41.809Z,17.90
2023-05-14T19:02:10.266Z,17.80
2023-05-14T19:04:50.684Z,17.70
2023-05-14T19:07:19.995Z,17.60
2023-05-14T19:09:48.165Z,17.50
2023-05-14T19:12:17.797Z,17.40
2023-05-14T19:14:45.941Z,17.30
2023-05-14T19:17:13.877Z,17.20
2023-05-14T19:19:42.126Z,17.10
2023-05-14T19:22:10.205Z,17.10
2023-05-14T19:24:38.839Z,17.00
2023-05-14T19:27:07.350Z,16.90
2023-05-14T19:29:37.710Z,16.80
2023-05-14T19:32:06.696Z,16.80
2023-05-14T19:34:34.842Z,16.70
2023-05-14T19:37:03.060Z,16.70
2023-05-14T19:39:31.178Z,16.60
2023-05-14T19:41:59.352Z,16.60
2023-05-14T19:44:27.479Z,16.60
2023-05-14T19:46:56.863Z,16.60
2023-05-14T19:49:24.970Z,16.40
2023-05-14T19:51:53.080Z,16.30
2023-05-14T19:54:21.631Z,16.30
2023-05-14T19:56:50.033Z,16.30
2023-05-14T19:59:18.100Z,16.20
2023-05-14T20:01:47.174Z,16.10
2023-05-14T20:04:16.731Z,16.00
2023-05-14T20:06:45.496Z,16.00
2023-05-14T20:09:13.827Z,15.90
2023-05-14T20:11:42.001Z,15.80
2023-05-14T20:14:09.995Z,15.70
2023-05-14T20:16:38.563Z,15.70
2023-05-14T20:19:07.302Z,15.70
2023-05-14T20:21:36.956Z,15.70
2023-05-14T20:24:05.518Z,15.60
2023-05-14T20:26:33.553Z,15.50
2023-05-14T20:29:01.692Z,15.50
2023-05-14T20:31:29.733Z,15.30
2023-05-14T20:33:57.929Z,15.30
2023-05-14T20:36:26.093Z,15.30
2023-05-14T20:38:55.963Z,15.30
2023-05-14T20:41:24.053Z,15.30
2023-05-14T20:43:52.155Z,15.20
2023-05-14T20:46:20.428Z,15.20
2023-05-14T20:48:48.981Z,15.20
2023-05-14T20:51:17.144Z,15.10
2023-05-14T20:53:45.357Z,15.10
2023-05-14T20:56:15.154Z,15.00
2023-05-14T20:58:43.265Z,14.90
2023-05-14T21:01:11.357Z,14.90
2023-05-14T21:03:39.654Z,14.90
2023-05-14T21:06:07.978Z,14.80
2023-05-14T21:08:37.717Z,14.80
2023-05-14T21:11:05.981Z,14.70
2023-05-14T21:13:35.652Z,14.60
2023-05-14T21:16:03.820Z,14.60
2023-05-14T21:18:32.965Z,14.50
2023-05-14T21:21:01.056Z,14.50
2023-05-14T21:23:29.223Z,14.50
2023-05-14T21:25:57.935Z,14.50
2023-05-14T21:28:26.070Z,14.50
2023-05-14T21:30:55.559Z,14.50
2023-05-14T21:33:24.096Z,14.40
2023-05-14T21:35:52.344Z,14.40
2023-05-14T21:38:20.581Z,14.40
2023-05-14T21:40:48.768Z,14.30
2023-05-14T21:43:16.863Z,14.20
2023-05-14T21:45:46.210Z,14.10
2023-05-14T21:48:15.740Z,14.10
2023-05-14T21:50:43.958Z,14.10
2023-05-14T21:53:12.160Z,14.00
2023-05-14T21:55:40.396Z,14.00
2023-05-14T21:58:09.382Z,14.10
2023-05-14T22:00:37.538Z,14.00
2023-05-14T22:03:05.754Z,14.00
2023-05-14T22:05:35.491Z,13.90
2023-05-14T22:08:03.557Z,13.90
2023-05-14T22:10:31.826Z,13.90
2023-05-14T22:12:59.942Z,13.90
2023-05-14T22:15:28.111Z,13.70
2023-05-14T22:17:57.123Z,13.70
2023-05-14T22:20:25.341Z,13.60
2023-05-14T22:22:54.960Z,13.50
2023-05-14T22:25:23.348Z,13.50
2023-05-14T22:27:51.578Z,13.50
2023-05-14T22:30:19.674Z,13.40
2023-05-14T22:32:47.909Z,13.40
2023-05-14T22:35:16.268Z,13.40
2023-05-14T22:37:44.430Z,13.30
2023-05-14T22:40:14.743Z,13.20
2023-05-14T22:42:42.939Z,13.20
2023-05-14T22:45:11.624Z,13.00
2023-05-14T22:47:39.764Z,13.10
2023-05-14T22:50:11.487Z,13.20
2023-05-14T22:52:40.123Z,13.20
2023-05-14T22:55:09.588Z,13.20
2023-05-14T22:57:39.580Z,13.20
2023-05-14T23:00:09.967Z,13.20
2023-05-14T23:02:38.200Z,13.20
2023-05-14T23:05:07.199Z,13.20
2023-05-14T23:07:35.368Z,13.10
2023-05-14T23:10:04.032Z,13.10
2023-05-14T23:12:32.122Z,13.10
2023-05-14T23:15:01.680Z,13.00
2023-05-14T23:17:29.793Z,13.00
2023-05-14T23:19:57.939Z,13.00
2023-05-14T23:22:26.109Z,13.00
2023-05-14T23:24:54.168Z,13.00
2023-05-14T23:27:22.372Z,13.00
2023-05-14T23:29:50.745Z,12.90
2023-05-14T23:32:20.218Z,13.00
2023-05-14T23:34:48.302Z,12.90
2023-05-14T23:37:16.441Z,12.90
2023-05-14T23:39:44.557Z,13.00
2023-05-14T23:42:12.659Z,13.00
2023-05-14T23:44:40.741Z,13.00
2023-05-14T23:47:09.174Z,12.90
2023-05-14T23:49:39.420Z,12.90
2023-05-14T23:52:07.965Z,12.90
2023-05-14T23:54:36.074Z,13.00
2023-05-14T23:57:04.441Z,12.90
2023-05-14T23:59:32.574Z,12.90
